This is the latest recevied weather packets stored in our database for station/object HG5OJG-6. If no packets are shown the sender has not sent any weather packets the latest 10 day(s).
| Time | Temp. | Humidity | Pressure | Rain* | Wind** | Luminosity | Snow |
|---|---|---|---|---|---|---|---|
| 1778187969 | 13.33° C | 88% | 1014.4 hPa | 0 mm | - | 0 W/m² | - |
| 1778186152 | 13.89° C | 88% | 1014.4 hPa | 0 mm | - | 0 W/m² | - |
| 1778185576 | 13.89° C | 87% | 1014.3 hPa | 0 mm | - | 0 W/m² | - |
| 1778181365 | 14.44° C | 87% | 1014 hPa | 0 mm | - | 0 W/m² | - |
| 1778180769 | 14.44° C | 86% | 1014 hPa | 0 mm | - | 0 W/m² | - |
| 1778180173 | 14.44° C | 86% | 1013.7 hPa | 0 mm | - | 0 W/m² | - |
| 1778179597 | 14.44° C | 86% | 1013.7 hPa | 0 mm | - | 0 W/m² | - |
| 1778175318 | 15° C | 83% | 1012.5 hPa | 1.27 mm | - | 4 W/m² | - |
| 1778174117 | 15.56° C | 82% | 1012.9 hPa | 1.52 mm | - | 13 W/m² | - |
| 1778170521 | 16.67° C | 77% | 1012.8 hPa | 0 mm | - | 28 W/m² | - |
| 1778169926 | 16.67° C | 77% | 1012.8 hPa | 0 mm | - | 38 W/m² | - |
| 1778166935 | 16.67° C | 77% | 1012.8 hPa | 0.51 mm | - | 83 W/m² | - |
| 1778166360 | 16.67° C | 76% | 1012.9 hPa | 0.51 mm | - | 65 W/m² | - |
| 1778165137 | 17.22° C | 72% | 1012.8 hPa | 0.25 mm | - | 53 W/m² | - |
| 1778164541 | 17.22° C | 70% | 1012.8 hPa | 0 mm | - | 64 W/m² | - |
| 1778163370 | 17.78° C | 67% | 1012.6 hPa | 0 mm | - | 78 W/m² | - |
| 1778162148 | 18.89° C | 61% | 1012.8 hPa | 0 mm | - | 81 W/m² | - |
| 1778160976 | 19.44° C | 58% | 1012.6 hPa | 0 mm | - | 156 W/m² | - |
| 1778158604 | 20.56° C | 55% | 1012.6 hPa | 0 mm | - | 187 W/m² | - |
| 1778156775 | 21.11° C | 55% | 1012.4 hPa | 0 mm | - | 93 W/m² | - |
| 1778155593 | 21.11° C | 54% | 1012.4 hPa | 0 mm | - | 188 W/m² | - |
| 1778154977 | 21.67° C | 52% | 1012.5 hPa | 0 mm | - | 210 W/m² | - |
| 1778152574 | 21.67° C | 52% | 1012.3 hPa | 0 mm | - | 405 W/m² | - |
| 1778151318 | 21.67° C | 53% | 1012.4 hPa | 0 mm | - | 239 W/m² | - |
| 1778150722 | 22.22° C | 54% | 1012.4 hPa | 0 mm | - | 180 W/m² | - |
* Rain latest hour (hover to see other rain measurements)
** Current wind speed in m/s (hover to see current wind gust speed)